• Join FlightAware (Why Join?)
  • Login
  • US Flag 
11:48AM EDT


 

Airport Tracker/Info


-or-


 

Live Flight TrackerFlight Track Log ✈ N75ZM ✈ 23-Jul-2013 ✈ KCAE - KPDK

Flight Track Log - Related Links

Times and Time Zones

All times are in EDT time to prevent confusion due to time zone crossing. See the N75ZM flight status page for this flight to view local times or setup timezone preferences in your user account.

Time Position Orientation Groundspeed Altitude Reporting Facility
EDT Latitude Longitude Course Direction KTS MPH feet Rate Location/Type
01:28PM 33.9334 -81.3655 270° West  Level FlightAware Approximate
01:29PM 33.9333 -81.4147 270° West  Level FlightAware Approximate
01:30PM 33.9333 -81.4639 270° West  Level FlightAware Approximate
01:31PM 33.9334 -81.5130 270° West  Level FlightAware Approximate
01:32PM 33.9334 -81.5622 270° West  Level FlightAware Approximate
01:33PM 33.9334 -81.6115 270° West  Level FlightAware Approximate
01:34PM 33.9334 -81.6607 270° West  Level FlightAware Approximate
01:35PM 33.9334 -81.7098 270° West  Level FlightAware Approximate
01:36PM 33.9333 -81.7590 270° West  Level FlightAware Approximate
01:37PM 33.9334 -81.8082 270° West  Level FlightAware Approximate
01:38PM 33.9334 -81.8574 270° West  Level FlightAware Approximate
01:39PM 33.9334 -81.9066 270° West  Level FlightAware Approximate
01:40PM 33.9268 -81.9552 261° West  Level FlightAware Approximate
01:41PM 33.9201 -82.0037 261° West  Level FlightAware Approximate
01:42PM 33.9135 -82.0522 261° West  Level FlightAware Approximate
01:43PM 33.9068 -82.1007 261° West  Level FlightAware Approximate
01:44PM 33.9000 -82.1508 272° West  Level FlightAware Approximate
01:45PM 33.9013 -82.2000 272° West  Level FlightAware Approximate
01:46PM 33.9026 -82.2491 272° West  Level FlightAware Approximate
01:47PM 33.9039 -82.2983 272° West  Level FlightAware Approximate
01:48PM 33.9051 -82.3474 272° West  Level FlightAware Approximate
01:49PM 33.9063 -82.3966 272° West  Level FlightAware Approximate
01:50PM 33.9075 -82.4457 272° West  Level FlightAware Approximate
01:51PM 33.9087 -82.4949 272° West  Level FlightAware Approximate
01:52PM 33.9099 -82.5440 272° West  Level FlightAware Approximate
01:53PM 33.9110 -82.5932 272° West  Level FlightAware Approximate
01:54PM 33.9121 -82.6423 272° West  Level FlightAware Approximate
01:55PM 33.9132 -82.6915 272° West  Level FlightAware Approximate
01:56PM 33.9143 -82.7406 272° West  Level FlightAware Approximate
01:57PM 33.9154 -82.7898 272° West  Level FlightAware Approximate
01:57PM 33.9333 -82.8000 273° West 154 177 8,100  Level Atlanta TRACON
01:58PM 33.9164 -82.8390 271° West  Level FlightAware Approximate
01:58PM 33.9333 -82.8500 270° West 156 180 8,200  Level Atlanta TRACON
01:59PM 33.9181 -82.8881 273° West  Level FlightAware Approximate
01:59PM 33.9333 -82.9000 270° West 155 178 8,100  Level Atlanta TRACON
02:00PM 33.9199 -82.9372 273° West  Level FlightAware Approximate
02:00PM 33.9333 -82.9500 270° West 155 178 8,100  Level Atlanta TRACON
02:01PM 33.9217 -82.9863 273° West  Level FlightAware Approximate
02:01PM 33.9333 -83.0000 270° West 153 176 8,000  Level Atlanta TRACON
02:02PM 33.9235 -83.0355 273° West  Level FlightAware Approximate
02:02PM 33.9500 -83.0500 292° West 165 190 7,500  Level Atlanta TRACON
02:03PM 33.9500 -83.1000 270° West 167 192 7,000 -540 Descending Atlanta TRACON
02:04PM 33.9500 -83.1500 270° West 165 190 6,600 -480 Descending Atlanta TRACON
02:05PM 33.9500 -83.2167 270° West 155 178 6,100 -240 Descending Atlanta TRACON
02:06PM 33.9500 -83.2667 270° West 141 162 6,100  Level Atlanta TRACON
02:07PM 33.9500 -83.3000 270° West 143 165 6,100  Level Atlanta TRACON
02:08PM 33.9500 -83.3500 270° West 153 176 6,100  Level Atlanta TRACON
02:09PM 33.9333 -83.4000 248° West 154 177 6,100  Level Atlanta TRACON
02:10PM 33.9333 -83.4500 270° West 155 178 6,100  Level Atlanta TRACON
02:11PM 33.9333 -83.5000 270° West 154 177 6,100  Level Atlanta TRACON
02:12PM 33.9333 -83.5500 270° West 155 178 6,100  Level Atlanta TRACON
02:13PM 33.9333 -83.6000 270° West 151 174 6,100  Level Atlanta TRACON
02:14PM 33.9167 -83.6667 253° West 150 173 6,100  Level Atlanta TRACON
02:15PM 33.9167 -83.7000 270° West 157 181 6,100 -120 Level Atlanta TRACON
02:16PM 33.9167 -83.7500 270° West 154 177 5,900 -360 Descending Atlanta TRACON
02:17PM 33.9167 -83.8167 270° West 159 183 5,400 -540 Descending Atlanta TRACON
02:18PM 33.9167 -83.8500 270° West 159 183 4,900 -540 Descending Atlanta TRACON
02:19PM 33.9000 -83.9000 248° West 145 167 4,400 -420 Descending Atlanta TRACON
02:20PM 33.9000 -83.9500 270° West 142 163 4,100 -420 Descending Atlanta TRACON
02:21PM 33.9000 -84.0000 270° West 142 163 3,600 -540 Descending Atlanta TRACON
02:22PM 33.9000 -84.0500 270° West 161 185 3,100 -300 Descending Atlanta TRACON
02:23PM 33.8833 -84.1000 248° West 153 176 3,100  Level Atlanta TRACON
02:24PM 33.8833 -84.1500 270° West 146 168 3,100 -240 Level Atlanta TRACON
02:25PM 33.8833 -84.2000 270° West 152 175 2,700 -480 Descending Atlanta TRACON
02:26PM 33.9000 -84.2500 292° West 151 174 2,200 -540 Descending Atlanta TRACON
02:27PM 33.9000 -84.2833 270° West 103 119 1,700 -480 Descending Atlanta TRACON
02:29PM 33.8667 -84.3000 270° West  Level FlightAware Approximate
02:36PM 33.8756 -84.3020 270° West  Level Estimated